createdAt,value
2023-01-28T00:01:18.634Z,2.33
2023-01-28T00:03:52.511Z,1.33
2023-01-28T00:06:25.717Z,2.00
2023-01-28T00:08:56.082Z,1.30
2023-01-28T00:11:26.345Z,2.55
2023-01-28T00:13:57.533Z,5.35
2023-01-28T00:16:28.154Z,7.78
2023-01-28T00:18:58.400Z,4.40
2023-01-28T00:21:28.688Z,10.60
2023-01-28T00:23:58.893Z,6.95
2023-01-28T00:26:29.115Z,4.75
2023-01-28T00:28:59.285Z,5.07
2023-01-28T00:31:29.809Z,4.18
2023-01-28T00:34:00.090Z,2.22
2023-01-28T00:36:30.278Z,5.00
2023-01-28T00:39:00.558Z,3.35
2023-01-28T00:41:30.748Z,2.13
2023-01-28T00:44:02.602Z,2.40
2023-01-28T00:46:32.821Z,4.63
2023-01-28T00:49:03.136Z,6.72
2023-01-28T00:51:33.794Z,4.93
2023-01-28T00:54:04.126Z,3.90
2023-01-28T00:56:34.304Z,3.33
2023-01-28T00:59:04.515Z,3.42
2023-01-28T01:01:35.330Z,2.97
2023-01-28T01:04:05.882Z,6.97
2023-01-28T01:06:38.645Z,5.28
2023-01-28T01:09:12.028Z,5.20
2023-01-28T01:11:42.221Z,2.97
2023-01-28T01:14:12.386Z,3.65
2023-01-28T01:16:42.625Z,1.63
2023-01-28T01:19:12.778Z,2.28
2023-01-28T01:21:42.896Z,3.38
2023-01-28T01:24:13.043Z,1.63
2023-01-28T01:26:43.343Z,2.00
2023-01-28T01:29:13.499Z,1.60
2023-01-28T01:31:43.887Z,1.88
2023-01-28T01:34:14.101Z,3.03
2023-01-28T01:36:44.351Z,1.10
2023-01-28T01:39:14.422Z,2.30
2023-01-28T01:41:46.060Z,1.98
2023-01-28T01:44:59.683Z,2.28
2023-01-28T01:47:29.718Z,4.28
2023-01-28T01:50:04.605Z,4.43
2023-01-28T01:52:36.619Z,2.78
2023-01-28T01:55:12.532Z,1.60
2023-01-28T01:57:44.319Z,1.17
2023-01-28T02:00:14.798Z,1.48
2023-01-28T02:02:48.717Z,1.98
2023-01-28T02:05:21.683Z,1.30
2023-01-28T02:08:20.603Z,1.90
2023-01-28T02:10:59.165Z,1.80
2023-01-28T02:13:42.355Z,2.13
2023-01-28T02:16:13.610Z,1.90
2023-01-28T02:18:43.752Z,0.90
2023-01-28T02:21:41.902Z,1.60
2023-01-28T02:24:39.457Z,1.63
2023-01-28T02:27:31.896Z,1.83
2023-01-28T02:30:02.090Z,0.85
2023-01-28T02:32:50.628Z,3.83
2023-01-28T02:35:39.710Z,5.43
2023-01-28T02:38:12.378Z,3.50
2023-01-28T02:41:05.487Z,3.50
2023-01-28T02:43:47.250Z,2.58
2023-01-28T02:46:52.704Z,3.15
2023-01-28T02:49:40.880Z,3.35
2023-01-28T02:52:57.432Z,2.83
2023-01-28T02:55:53.935Z,1.80
2023-01-28T02:58:32.365Z,2.42
2023-01-28T03:01:11.355Z,6.18
2023-01-28T03:03:57.648Z,12.15
2023-01-28T03:06:40.076Z,10.88
2023-01-28T03:09:27.283Z,4.68
2023-01-28T03:12:32.995Z,3.55
2023-01-28T03:15:31.311Z,3.83
2023-01-28T03:18:29.014Z,2.75
2023-01-28T03:21:26.856Z,1.90
2023-01-28T03:24:18.137Z,2.35
2023-01-28T03:27:28.489Z,1.73
2023-01-28T03:30:22.129Z,0.85
2023-01-28T03:33:12.835Z,6.97
2023-01-28T03:36:02.545Z,13.25
2023-01-28T03:38:42.308Z,4.30
2023-01-28T03:41:12.823Z,3.25
2023-01-28T03:43:45.607Z,1.77
2023-01-28T03:46:15.825Z,1.85
2023-01-28T03:48:46.547Z,4.93
2023-01-28T03:51:18.083Z,9.13
2023-01-28T03:53:48.302Z,14.18
2023-01-28T03:56:18.741Z,10.75
2023-01-28T03:58:56.890Z,7.82
2023-01-28T04:01:27.225Z,9.27
2023-01-28T04:03:57.777Z,9.57
2023-01-28T04:06:29.178Z,5.78
2023-01-28T04:08:59.740Z,5.18
2023-01-28T04:11:29.964Z,3.47
2023-01-28T04:14:00.123Z,2.35
2023-01-28T04:16:30.320Z,2.88
2023-01-28T04:19:00.556Z,1.13
2023-01-28T04:21:30.834Z,1.25
2023-01-28T04:24:02.097Z,1.70
2023-01-28T04:26:32.404Z,1.20
2023-01-28T04:29:03.259Z,3.40
2023-01-28T04:31:34.403Z,4.00
2023-01-28T04:34:04.622Z,1.95
2023-01-28T04:36:34.892Z,1.35
2023-01-28T04:39:05.117Z,2.72
2023-01-28T04:41:35.256Z,2.05
2023-01-28T04:44:05.463Z,3.08
2023-01-28T04:46:35.749Z,2.58
2023-01-28T04:49:06.051Z,2.55
2023-01-28T04:51:36.247Z,2.70
2023-01-28T04:54:06.599Z,3.90
2023-01-28T04:56:36.835Z,2.13
2023-01-28T04:59:06.960Z,2.20
2023-01-28T05:01:37.102Z,1.67
2023-01-28T05:04:08.066Z,2.67
2023-01-28T05:06:38.317Z,2.28
2023-01-28T05:09:08.514Z,1.90
2023-01-28T05:11:39.336Z,1.83
2023-01-28T05:14:09.612Z,2.88
2023-01-28T05:16:39.804Z,3.92
2023-01-28T05:19:10.017Z,5.45
2023-01-28T05:21:40.183Z,6.82
2023-01-28T05:24:10.632Z,4.32
2023-01-28T05:26:41.204Z,3.17
2023-01-28T05:29:11.453Z,2.00
2023-01-28T05:31:41.543Z,1.83
2023-01-28T05:34:11.679Z,1.75
2023-01-28T05:36:41.763Z,1.58
2023-01-28T05:39:11.902Z,1.55
2023-01-28T05:41:42.014Z,1.83
2023-01-28T05:44:12.171Z,1.83
2023-01-28T05:46:45.582Z,1.90
2023-01-28T05:49:16.792Z,0.90
2023-01-28T05:51:48.499Z,1.10
2023-01-28T05:54:19.689Z,1.17
2023-01-28T05:56:49.890Z,0.80
2023-01-28T05:59:20.191Z,2.15
2023-01-28T06:01:50.418Z,1.55
2023-01-28T06:04:20.642Z,2.65
2023-01-28T06:06:50.741Z,4.45
2023-01-28T06:09:20.895Z,4.70
2023-01-28T06:11:51.227Z,3.50
2023-01-28T06:14:21.387Z,12.68
2023-01-28T06:16:52.442Z,11.70
2023-01-28T06:19:22.708Z,6.35
2023-01-28T06:21:52.861Z,4.43
2023-01-28T06:24:23.068Z,2.92
2023-01-28T06:26:53.227Z,2.03
2023-01-28T06:29:23.631Z,2.05
2023-01-28T06:31:54.015Z,1.30
2023-01-28T06:34:24.284Z,1.52
2023-01-28T06:36:54.455Z,2.95
2023-01-28T06:39:24.741Z,9.20
2023-01-28T06:41:55.046Z,12.15
2023-01-28T06:44:25.239Z,10.35
2023-01-28T06:46:55.410Z,9.52
2023-01-28T06:49:25.521Z,10.43
2023-01-28T06:51:55.628Z,10.07
2023-01-28T06:54:25.851Z,6.95
2023-01-28T06:56:56.154Z,5.55
2023-01-28T06:59:26.469Z,4.40
2023-01-28T07:01:56.672Z,4.38
2023-01-28T07:04:26.907Z,4.35
2023-01-28T07:06:57.086Z,4.35
2023-01-28T07:09:27.271Z,4.28
2023-01-28T07:11:57.451Z,4.30
2023-01-28T07:14:27.677Z,5.13
2023-01-28T07:16:57.873Z,2.60
2023-01-28T07:19:28.073Z,2.83
2023-01-28T07:22:01.005Z,1.67
2023-01-28T07:24:31.540Z,3.70
2023-01-28T07:27:01.707Z,3.63
2023-01-28T07:29:31.892Z,1.73
2023-01-28T07:32:02.415Z,2.30
2023-01-28T07:34:32.756Z,2.00
2023-01-28T07:37:03.469Z,6.05
2023-01-28T07:39:37.794Z,6.95
2023-01-28T07:42:13.617Z,4.30
2023-01-28T07:44:44.421Z,2.55
2023-01-28T07:47:14.708Z,3.15
2023-01-28T07:49:45.053Z,4.05
2023-01-28T07:52:15.506Z,4.55
2023-01-28T07:54:46.376Z,2.88
2023-01-28T07:57:23.398Z,14.75
2023-01-28T08:02:23.720Z,4.30
2023-01-28T08:04:54.264Z,2.13
2023-01-28T08:07:24.567Z,2.20
2023-01-28T08:09:54.744Z,1.92
2023-01-28T08:12:24.845Z,2.47
2023-01-28T08:14:55.073Z,3.33
2023-01-28T08:17:25.170Z,3.58
2023-01-28T08:19:55.325Z,8.65
2023-01-28T08:22:26.739Z,4.78
2023-01-28T08:24:56.952Z,4.28
2023-01-28T08:27:27.164Z,2.88
2023-01-28T08:29:57.338Z,1.98
2023-01-28T08:32:29.467Z,2.30
2023-01-28T08:34:59.929Z,1.27
2023-01-28T08:37:30.079Z,2.03
2023-01-28T08:40:00.245Z,1.98
2023-01-28T08:42:30.487Z,2.58
2023-01-28T08:45:00.640Z,1.50
2023-01-28T08:47:33.628Z,5.38
2023-01-28T08:50:04.283Z,4.15
2023-01-28T08:52:34.435Z,3.60
2023-01-28T08:55:06.885Z,6.18
2023-01-28T08:57:37.023Z,2.90
2023-01-28T09:00:10.847Z,1.65
2023-01-28T09:02:41.091Z,2.00
2023-01-28T09:05:11.737Z,2.42
2023-01-28T09:07:42.084Z,5.65
2023-01-28T09:10:12.703Z,3.05
2023-01-28T09:12:44.168Z,6.35
2023-01-28T09:15:14.493Z,7.25
2023-01-28T09:17:44.877Z,2.88
2023-01-28T09:20:15.293Z,4.55
2023-01-28T09:22:45.660Z,4.72
2023-01-28T09:25:15.848Z,8.35
2023-01-28T09:27:46.789Z,3.42
2023-01-28T09:30:17.837Z,5.75
2023-01-28T09:32:52.428Z,3.10
2023-01-28T09:35:23.057Z,3.47
2023-01-28T09:37:57.314Z,3.50
2023-01-28T09:40:37.140Z,3.47
2023-01-28T09:43:16.292Z,7.07
2023-01-28T09:45:49.152Z,7.22
2023-01-28T09:48:31.035Z,3.88
2023-01-28T09:51:01.934Z,4.47
2023-01-28T09:53:37.108Z,3.85
2023-01-28T09:56:14.709Z,7.40
2023-01-28T09:58:44.809Z,4.72
2023-01-28T10:01:33.258Z,5.70
2023-01-28T10:04:23.357Z,9.25
2023-01-28T10:07:17.606Z,6.65
2023-01-28T10:09:59.300Z,6.68
2023-01-28T10:12:56.807Z,5.70
2023-01-28T10:15:50.264Z,5.03
2023-01-28T10:18:35.007Z,9.25
2023-01-28T10:21:21.010Z,12.10
2023-01-28T10:24:02.151Z,3.88
2023-01-28T10:26:41.283Z,12.98
2023-01-28T10:29:20.741Z,7.05
2023-01-28T10:31:57.680Z,9.32
2023-01-28T10:34:27.972Z,14.13
2023-01-28T10:36:58.399Z,6.53
2023-01-28T10:39:29.108Z,5.82
2023-01-28T10:41:59.827Z,7.78
2023-01-28T10:44:38.073Z,5.32
2023-01-28T10:47:15.575Z,7.35
2023-01-28T10:49:51.652Z,5.45
2023-01-28T10:52:21.769Z,11.48
2023-01-28T10:55:02.985Z,9.65
2023-01-28T10:57:43.339Z,6.70
2023-01-28T11:00:24.221Z,4.63
2023-01-28T11:02:55.291Z,6.10
2023-01-28T11:05:30.797Z,6.43
2023-01-28T11:08:14.973Z,12.77
2023-01-28T11:10:46.640Z,5.22
2023-01-28T11:13:26.949Z,7.55
2023-01-28T11:16:02.831Z,7.43
2023-01-28T11:18:36.570Z,12.23
2023-01-28T11:21:15.347Z,6.38
2023-01-28T11:24:02.227Z,6.68
2023-01-28T11:29:07.383Z,12.20
2023-01-28T11:31:44.523Z,16.35
2023-01-28T11:34:18.395Z,19.50
2023-01-28T11:36:56.957Z,12.07
2023-01-28T11:39:29.852Z,8.30
2023-01-28T11:42:16.121Z,4.45
2023-01-28T11:44:48.457Z,26.25
2023-01-28T11:47:25.267Z,10.65
2023-01-28T11:50:01.886Z,11.43
2023-01-28T11:53:07.651Z,8.65
2023-01-28T11:55:46.061Z,16.70
2023-01-28T11:58:38.139Z,13.07
2023-01-28T12:01:25.233Z,12.48
2023-01-28T12:04:15.091Z,12.02
2023-01-28T12:06:58.615Z,8.48
2023-01-28T12:10:06.851Z,7.32
2023-01-28T12:13:06.143Z,9.48
2023-01-28T12:16:00.998Z,9.52
2023-01-28T12:18:50.309Z,6.15
2023-01-28T12:21:43.290Z,15.95
2023-01-28T12:24:29.461Z,8.98
2023-01-28T12:27:10.975Z,5.43
2023-01-28T12:29:47.839Z,9.77
2023-01-28T12:32:40.395Z,10.00
2023-01-28T12:35:33.370Z,8.30
2023-01-28T12:38:11.172Z,12.43
2023-01-28T12:40:44.368Z,9.00
2023-01-28T12:43:59.417Z,8.30
2023-01-28T12:46:52.812Z,7.82
2023-01-28T12:49:32.807Z,20.73
2023-01-28T12:52:23.953Z,8.57
2023-01-28T12:54:58.305Z,8.23
2023-01-28T12:57:31.806Z,6.32
2023-01-28T13:00:26.302Z,11.70
2023-01-28T13:03:02.780Z,29.65
2023-01-28T13:05:39.032Z,11.65
2023-01-28T13:08:24.185Z,14.87
2023-01-28T13:10:57.696Z,12.48
2023-01-28T13:13:30.739Z,17.50
2023-01-28T13:16:02.703Z,12.18
2023-01-28T13:18:42.684Z,29.95
2023-01-28T13:21:25.082Z,47.10
2023-01-28T13:24:12.279Z,30.92
2023-01-28T13:26:46.803Z,16.58
2023-01-28T13:29:26.113Z,16.30
2023-01-28T13:31:58.897Z,14.02
2023-01-28T13:34:40.696Z,13.88
2023-01-28T13:37:26.623Z,14.18
2023-01-28T13:40:09.381Z,23.87
2023-01-28T13:42:40.605Z,13.05
2023-01-28T13:45:16.953Z,23.00
2023-01-28T13:47:51.859Z,22.48
2023-01-28T13:50:26.156Z,24.25
2023-01-28T13:52:56.433Z,19.15
2023-01-28T13:55:43.470Z,12.90
2023-01-28T13:58:58.441Z,18.35
2023-01-28T14:01:34.477Z,9.90
2023-01-28T14:04:23.352Z,19.45
2023-01-28T14:06:59.538Z,48.53
2023-01-28T14:09:29.834Z,25.13
2023-01-28T14:12:14.995Z,19.70
2023-01-28T14:15:07.923Z,15.15
2023-01-28T14:17:51.770Z,15.00
2023-01-28T14:20:43.994Z,14.48
2023-01-28T14:23:22.376Z,14.88
2023-01-28T14:26:01.677Z,21.25
2023-01-28T14:28:50.277Z,18.48
2023-01-28T14:31:32.520Z,18.00
2023-01-28T14:34:05.726Z,24.40
2023-01-28T14:36:45.088Z,17.45
2023-01-28T14:39:28.094Z,24.92
2023-01-28T14:42:03.748Z,26.40
2023-01-28T14:44:41.743Z,22.02
2023-01-28T14:47:29.569Z,39.80
2023-01-28T14:50:20.463Z,19.95
2023-01-28T14:52:50.500Z,24.40
2023-01-28T14:55:30.299Z,38.60
2023-01-28T14:58:09.438Z,18.58
2023-01-28T15:00:39.935Z,18.45
2023-01-28T15:03:26.838Z,27.70
2023-01-28T15:08:48.218Z,31.92
2023-01-28T15:11:23.691Z,29.70
2023-01-28T15:13:58.238Z,17.27
2023-01-28T15:16:32.063Z,22.42
2023-01-28T15:19:02.846Z,28.08
2023-01-28T15:21:35.243Z,17.98
2023-01-28T15:24:06.295Z,18.30
2023-01-28T15:26:37.191Z,19.42
2023-01-28T15:29:07.367Z,20.27
2023-01-28T15:31:40.985Z,17.10
2023-01-28T15:34:16.792Z,21.77
2023-01-28T15:36:49.935Z,25.85
2023-01-28T15:39:23.090Z,19.42
2023-01-28T15:42:01.257Z,25.58
2023-01-28T15:44:34.763Z,29.45
2023-01-28T15:47:22.435Z,22.00
2023-01-28T15:49:55.925Z,35.60
2023-01-28T15:52:42.409Z,26.55
2023-01-28T15:55:33.798Z,17.83
2023-01-28T15:58:19.515Z,19.70
2023-01-28T16:00:50.723Z,18.15
2023-01-28T16:03:22.128Z,25.05
2023-01-28T16:06:07.382Z,20.73
2023-01-28T16:08:56.114Z,21.38
2023-01-28T16:11:45.199Z,14.60
2023-01-28T16:14:31.545Z,23.23
2023-01-28T16:17:01.801Z,22.52
2023-01-28T16:19:38.283Z,26.10
2023-01-28T16:22:18.925Z,27.30
2023-01-28T16:24:53.559Z,21.40
2023-01-28T16:27:27.129Z,23.15
2023-01-28T16:29:57.575Z,27.95
2023-01-28T16:32:35.011Z,21.25
2023-01-28T16:35:37.987Z,27.30
2023-01-28T16:38:18.415Z,20.50
2023-01-28T16:40:49.826Z,21.02
2023-01-28T16:43:20.003Z,23.55
2023-01-28T16:45:50.120Z,22.02
2023-01-28T16:48:20.405Z,14.80
2023-01-28T16:50:50.567Z,16.48
2023-01-28T16:53:28.269Z,16.27
2023-01-28T16:55:58.959Z,25.20
2023-01-28T16:58:29.442Z,19.98
2023-01-28T17:00:59.791Z,24.67
2023-01-28T17:03:29.964Z,17.13
2023-01-28T17:06:00.169Z,26.10
2023-01-28T17:08:30.296Z,58.47
2023-01-28T17:11:00.822Z,53.05
2023-01-28T17:13:30.947Z,25.00
2023-01-28T17:16:04.660Z,29.13
2023-01-28T17:18:35.126Z,18.23
2023-01-28T17:21:07.689Z,22.55
2023-01-28T17:23:38.231Z,23.20
2023-01-28T17:26:11.342Z,34.08
2023-01-28T17:28:42.014Z,33.95
2023-01-28T17:31:14.709Z,30.02
2023-01-28T17:33:45.024Z,25.58
2023-01-28T17:36:15.115Z,20.67
2023-01-28T17:38:45.653Z,19.25
2023-01-28T17:41:17.477Z,21.02
2023-01-28T17:43:55.324Z,27.77
2023-01-28T17:46:26.611Z,27.02
2023-01-28T17:48:56.832Z,23.55
2023-01-28T17:51:27.017Z,23.58
2023-01-28T17:53:57.209Z,25.27
2023-01-28T17:56:29.775Z,25.83
2023-01-28T17:59:03.693Z,17.98
2023-01-28T18:01:37.351Z,32.15
2023-01-28T18:04:07.634Z,26.15
2023-01-28T18:06:37.706Z,25.95
2023-01-28T18:09:09.349Z,22.92
2023-01-28T18:11:39.601Z,30.33
2023-01-28T18:14:09.794Z,28.55
2023-01-28T18:16:39.975Z,28.02
2023-01-28T18:19:10.737Z,27.05
2023-01-28T18:21:57.147Z,23.20
2023-01-28T18:24:29.363Z,19.38
2023-01-28T18:27:00.935Z,20.45
2023-01-28T18:29:32.000Z,21.98
2023-01-28T18:32:02.894Z,20.08
2023-01-28T18:34:34.164Z,20.17
2023-01-28T18:37:06.785Z,18.77
2023-01-28T18:39:38.203Z,18.02
2023-01-28T18:42:09.063Z,17.48
2023-01-28T18:44:39.293Z,21.02
2023-01-28T18:47:09.935Z,21.08
2023-01-28T18:49:43.013Z,19.20
2023-01-28T18:52:13.279Z,30.27
2023-01-28T18:54:43.413Z,25.08
2023-01-28T18:57:13.583Z,64.30
2023-01-28T18:59:43.758Z,27.50
2023-01-28T19:02:14.868Z,20.40
2023-01-28T19:04:45.016Z,15.10
2023-01-28T19:07:15.299Z,20.30
2023-01-28T19:09:45.648Z,20.63
2023-01-28T19:12:15.863Z,18.25
2023-01-28T19:14:46.078Z,12.88
2023-01-28T19:17:16.208Z,14.38
2023-01-28T19:19:46.362Z,15.57
2023-01-28T19:22:17.030Z,16.70
2023-01-28T19:24:47.131Z,29.65
2023-01-28T19:27:17.283Z,20.98
2023-01-28T19:29:47.520Z,19.25
2023-01-28T19:32:18.220Z,30.08
2023-01-28T19:34:48.413Z,25.80
2023-01-28T19:37:21.788Z,25.40
2023-01-28T19:39:54.950Z,29.83
2023-01-28T19:42:25.230Z,22.52
2023-01-28T19:44:55.348Z,17.23
2023-01-28T19:47:25.862Z,15.63
2023-01-28T19:49:56.141Z,83.45
2023-01-28T19:52:26.306Z,42.47
2023-01-28T19:54:57.928Z,23.05
2023-01-28T19:57:28.158Z,27.65
2023-01-28T19:59:58.268Z,18.83
2023-01-28T20:02:28.460Z,19.33
2023-01-28T20:05:01.077Z,13.27
2023-01-28T20:07:31.507Z,20.80
2023-01-28T20:10:01.682Z,14.52
2023-01-28T20:12:31.812Z,15.35
2023-01-28T20:15:02.017Z,15.45
2023-01-28T20:17:32.271Z,19.30
2023-01-28T20:20:04.955Z,17.80
2023-01-28T20:22:38.632Z,15.20
2023-01-28T20:25:09.534Z,10.13
2023-01-28T20:27:39.778Z,10.10
2023-01-28T20:30:10.766Z,14.25
2023-01-28T20:32:40.977Z,11.00
2023-01-28T20:35:11.131Z,11.98
2023-01-28T20:37:41.282Z,13.68
2023-01-28T20:40:11.965Z,14.70
2023-01-28T20:42:42.108Z,25.80
2023-01-28T20:45:13.493Z,17.55
2023-01-28T20:47:43.675Z,18.48
2023-01-28T20:50:14.125Z,12.77
2023-01-28T20:52:44.726Z,16.98
2023-01-28T20:55:15.618Z,13.98
2023-01-28T20:57:45.835Z,12.95
2023-01-28T21:00:16.427Z,12.07
2023-01-28T21:02:46.851Z,10.25
2023-01-28T21:05:17.072Z,17.30
2023-01-28T21:07:47.259Z,18.63
2023-01-28T21:10:17.906Z,16.15
2023-01-28T21:12:48.283Z,14.65
2023-01-28T21:15:18.399Z,7.97
2023-01-28T21:17:54.599Z,16.75
2023-01-28T21:20:24.755Z,8.23
2023-01-28T21:22:55.304Z,16.98
2023-01-28T21:25:26.930Z,12.55
2023-01-28T21:27:57.061Z,13.13
2023-01-28T21:30:27.259Z,11.85
2023-01-28T21:32:57.686Z,12.43
2023-01-28T21:35:27.962Z,15.77
2023-01-28T21:38:00.275Z,10.93
2023-01-28T21:40:31.435Z,17.52
2023-01-28T21:43:01.961Z,11.45
2023-01-28T21:45:32.174Z,15.35
2023-01-28T21:48:02.420Z,26.10
2023-01-28T21:50:52.566Z,20.10
2023-01-28T21:53:22.664Z,17.00
2023-01-28T21:55:53.246Z,17.00
2023-01-28T21:58:42.296Z,21.75
2023-01-28T22:01:12.615Z,17.65
2023-01-28T22:03:43.000Z,18.13
2023-01-28T22:06:13.245Z,15.60
2023-01-28T22:08:43.435Z,13.80
2023-01-28T22:11:13.960Z,11.52
2023-01-28T22:13:44.111Z,16.30
2023-01-28T22:16:14.382Z,9.30
2023-01-28T22:18:44.656Z,29.73
2023-01-28T22:21:14.953Z,16.75
2023-01-28T22:23:45.192Z,22.77
2023-01-28T22:26:15.287Z,18.30
2023-01-28T22:28:45.474Z,17.40
2023-01-28T22:31:16.828Z,16.25
2023-01-28T22:33:47.350Z,23.00
2023-01-28T22:36:17.539Z,15.48
2023-01-28T22:38:47.901Z,19.50
2023-01-28T22:41:23.466Z,30.70
2023-01-28T22:43:54.106Z,14.48
2023-01-28T22:46:25.417Z,19.85
2023-01-28T22:48:55.564Z,39.85
2023-01-28T22:51:30.500Z,20.88
2023-01-28T22:54:01.987Z,14.75
2023-01-28T22:56:32.315Z,15.25
2023-01-28T22:59:03.840Z,17.73
2023-01-28T23:01:35.572Z,18.17
2023-01-28T23:04:05.904Z,11.43
2023-01-28T23:06:37.459Z,19.75
2023-01-28T23:09:07.902Z,16.40
2023-01-28T23:11:38.065Z,19.48
2023-01-28T23:14:26.838Z,12.57
2023-01-28T23:17:15.398Z,15.45
2023-01-28T23:20:20.981Z,11.57
2023-01-28T23:23:09.897Z,14.15
2023-01-28T23:25:40.306Z,14.02
2023-01-28T23:28:10.464Z,13.43
2023-01-28T23:30:41.568Z,17.92
2023-01-28T23:33:11.835Z,23.92
2023-01-28T23:35:42.174Z,22.42
2023-01-28T23:38:12.268Z,20.88
2023-01-28T23:40:42.412Z,17.70
2023-01-28T23:43:12.956Z,10.65
2023-01-28T23:45:43.052Z,13.88
2023-01-28T23:48:13.178Z,11.77
2023-01-28T23:50:43.374Z,18.35
2023-01-28T23:53:14.475Z,11.88
2023-01-28T23:55:44.624Z,12.88
2023-01-28T23:58:14.789Z,27.70
